Time;durP1;ratioP1;P1;durP2;ratioP2;P2;SDS_P1;SDS_P2;PMS_P1;PMS_P2;Temp;Humidity;BMP_temperature;BMP_pressure;BME280_temperature;BME280_humidity;BME280_pressure;Samples;Min_cycle;Max_cycle;Signal;HPM_P1;HPM_P2
2022/07/20 00:01:25;;;;;;;6.93;3.70;;;;;;;23.77;58.93;101125.22;5179157;27;20077;-53
2022/07/20 00:03:53;;;;;;;7.90;3.88;;;;;;;;;;5177654;27;20053;-57
2022/07/20 00:06:21;;;;;;;8.55;4.00;;;;;;;23.69;59.66;101125.28;5179958;27;20105;-56
2022/07/20 00:11:36;;;;;;;10.02;4.32;;;;;;;23.60;61.07;101131.72;5156293;27;20050;-57
2022/07/20 00:14:05;;;;;;;7.80;4.28;;;;;;;23.51;61.92;101132.81;5178751;27;20484;-55
2022/07/20 00:16:35;;;;;;;7.55;4.22;;;;;;;23.37;62.39;101135.25;5177641;27;20527;-53
2022/07/20 00:19:04;;;;;;;8.10;3.72;;;;;;;23.40;62.06;101131.38;5179350;27;20561;-55
2022/07/20 00:21:33;;;;;;;8.82;3.67;;;;;;;23.35;62.74;101134.59;5171383;27;20058;-53
2022/07/20 00:24:01;;;;;;;7.00;3.83;;;;;;;23.32;62.03;101131.44;5179797;27;20048;-54
2022/07/20 00:26:29;;;;;;;7.55;3.97;;;;;;;23.37;62.62;101132.56;5178412;27;20133;-54
2022/07/20 00:28:58;;;;;;;8.75;4.32;;;;;;;23.34;62.67;101129.41;5178346;27;20046;-54
2022/07/20 00:31:27;;;;;;;7.70;3.85;;;;;;;23.28;62.75;101133.63;5161949;27;20034;-54
2022/07/20 00:33:55;;;;;;;10.07;3.83;;;;;;;23.26;63.34;101124.91;5181849;27;20069;-55
2022/07/20 00:36:23;;;;;;;8.48;3.95;;;;;;;23.22;63.70;101127.13;5178563;27;20109;-53
2022/07/20 00:38:51;;;;;;;8.02;3.70;;;;;;;23.09;64.82;101116.94;5159959;27;20074;-54
2022/07/20 00:41:20;;;;;;;7.63;4.20;;;;;;;23.09;64.65;101118.78;5180421;27;20066;-55
2022/07/20 00:44:01;;;;;;;7.78;4.20;;;;;;;23.04;64.24;101115.78;5181153;27;20046;-54
2022/07/20 00:46:31;;;;;;;7.43;4.15;;;;;;;23.04;63.50;101115.78;5181059;27;20042;-55
2022/07/20 00:48:59;;;;;;;9.90;4.53;;;;;;;22.96;62.83;101111.31;5181043;27;20049;-54
2022/07/20 00:51:27;;;;;;;7.47;4.15;;;;;;;22.95;63.40;101115.00;5180680;27;20042;-55
2022/07/20 00:53:56;;;;;;;7.90;4.70;;;;;;;22.89;63.78;101113.88;5180800;27;20049;-57
2022/07/20 00:56:24;;;;;;;11.27;3.92;;;;;;;22.93;63.36;101112.50;5180254;27;20082;-53
2022/07/20 00:58:53;;;;;;;11.85;4.30;;;;;;;22.86;63.68;101111.50;5160109;27;20042;-56
2022/07/20 01:01:23;;;;;;;7.40;3.72;;;;;;;22.84;64.14;101110.00;5174797;27;20561;-55
2022/07/20 01:03:51;;;;;;;7.32;3.70;;;;;;;22.79;64.04;101103.31;5177203;27;20085;-51
2022/07/20 01:06:19;;;;;;;8.50;4.20;;;;;;;22.69;64.64;101107.25;5177613;27;20038;-53
2022/07/20 01:08:49;;;;;;;11.45;4.28;;;;;;;22.66;64.71;101102.22;5159118;27;20052;-53
2022/07/20 01:11:19;;;;;;;7.68;3.92;;;;;;;22.61;65.13;101108.09;5177460;27;20050;-53
2022/07/20 01:13:47;;;;;;;7.90;3.83;;;;;;;22.53;66.22;101102.78;5176921;27;20049;-52
2022/07/20 01:16:15;;;;;;;7.15;3.90;;;;;;;22.56;65.93;101103.25;5157534;27;20561;-55
2022/07/20 01:18:45;;;;;;;9.70;4.47;;;;;;;22.52;65.44;101112.63;5177611;27;20038;-54
2022/07/20 01:21:15;;;;;;;9.63;4.13;;;;;;;22.45;65.60;101104.47;5176958;27;20121;-54
2022/07/20 01:23:43;;;;;;;10.20;4.40;;;;;;;22.40;65.56;101096.13;5175117;27;20050;-54
2022/07/20 01:26:11;;;;;;;11.88;4.70;;;;;;;22.37;65.46;101112.50;5174957;27;20115;-52
2022/07/20 01:28:39;;;;;;;9.85;4.22;;;;;;;22.32;65.63;101111.31;5175280;27;20046;-52
2022/07/20 01:31:07;;;;;;;7.57;3.83;;;;;;;22.34;65.79;101114.69;5173650;27;20125;-55
2022/07/20 01:33:35;;;;;;;8.93;3.90;;;;;;;22.34;65.86;101120.03;5176808;27;20110;-54
2022/07/20 01:36:04;;;;;;;7.15;3.97;;;;;;;22.28;66.41;101110.84;5176408;27;20050;-53
2022/07/20 01:38:33;;;;;;;8.90;3.97;;;;;;;22.24;66.48;101106.84;5156284;27;20046;-54
2022/07/20 01:41:01;;;;;;;8.45;4.53;;;;;;;22.23;66.96;101107.84;5176192;27;20072;-54
2022/07/20 01:43:29;;;;;;;9.45;4.20;;;;;;;22.17;66.97;101105.81;5176647;27;20054;-53
2022/07/20 01:45:57;;;;;;;8.35;4.00;;;;;;;22.13;67.40;101108.03;5176819;27;20038;-54
2022/07/20 01:48:26;;;;;;;8.20;4.18;;;;;;;22.09;67.52;101109.38;5155516;27;20067;-54
2022/07/20 01:50:54;;;;;;;8.05;4.18;;;;;;;22.12;66.88;101112.53;5173113;27;20034;-53
2022/07/20 01:53:22;;;;;;;6.85;4.28;;;;;;;22.15;66.81;101110.53;5175155;27;20070;-54
2022/07/20 01:55:52;;;;;;;8.63;4.15;;;;;;;22.03;67.47;101116.25;5173540;27;20046;-53
2022/07/20 01:58:20;;;;;;;7.60;4.20;;;;;;;21.97;67.65;101124.94;5176025;27;20054;-54
2022/07/20 02:00:48;;;;;;;9.75;4.63;;;;;;;21.90;68.82;101123.94;5176480;27;20408;-52
2022/07/20 02:03:17;;;;;;;7.45;4.15;;;;;;;21.87;68.76;101133.16;5156314;27;20400;-53
2022/07/20 02:05:46;;;;;;;9.55;4.53;;;;;;;21.80;68.59;101131.28;5172021;27;20046;-53
2022/07/20 02:08:14;;;;;;;9.20;4.30;;;;;;;21.83;69.15;101128.28;5174491;27;20435;-53
2022/07/20 02:10:42;;;;;;;6.78;3.95;;;;;;;21.80;69.23;101132.16;5176383;27;20117;-55
2022/07/20 02:13:11;;;;;;;7.05;4.25;;;;;;;21.77;69.48;101125.28;5175751;27;20610;-51
2022/07/20 02:18:25;;;;;;;8.05;4.28;;;;;;;21.72;69.86;101116.06;5175445;27;20061;-53
2022/07/20 02:20:53;;;;;;;12.02;4.90;;;;;;;21.72;69.53;101116.06;5175822;27;20130;-51
2022/07/20 02:23:21;;;;;;;8.68;4.30;;;;;;;21.70;68.97;101112.72;5175685;27;20053;-56
2022/07/20 02:25:49;;;;;;;7.57;4.43;;;;;;;21.55;69.34;101120.56;5175773;27;20437;-56
2022/07/20 02:28:19;;;;;;;9.77;4.72;;;;;;;21.56;69.84;101114.22;5173005;27;20121;-57
2022/07/20 02:30:47;;;;;;;7.72;4.07;;;;;;;21.51;70.42;101116.53;5173995;27;20043;-53
2022/07/20 02:33:15;;;;;;;8.88;4.18;;;;;;;21.55;69.51;101115.22;5175799;27;20106;-56
2022/07/20 02:35:43;;;;;;;9.38;4.30;;;;;;;21.47;70.25;101121.34;5159082;27;20053;-52
2022/07/20 02:38:11;;;;;;;10.35;4.30;;;;;;;21.47;70.50;101120.53;5175467;27;20105;-53
2022/07/20 02:40:39;;;;;;;8.82;4.45;;;;;;;21.52;70.49;101123.56;5175095;27;20106;-55
2022/07/20 02:43:07;;;;;;;8.73;4.03;;;;;;;21.37;69.08;101134.88;5175638;27;20098;-54
2022/07/20 02:45:36;;;;;;;9.48;4.35;;;;;;;21.31;69.50;101124.88;5175717;27;20046;-53
2022/07/20 02:48:05;;;;;;;7.03;4.22;;;;;;;21.33;69.79;101130.03;5175333;27;20049;-53
2022/07/20 02:50:37;;;;;;;10.20;4.30;;;;;;;21.22;63.78;101139.22;5174425;27;20034;-53
2022/07/20 02:53:06;;;;;;;8.98;4.28;;;;;;;21.18;64.41;101146.72;5172554;27;20049;-54
2022/07/20 02:55:35;;;;;;;10.10;4.07;;;;;;;21.20;65.49;101128.69;5173346;27;20058;-55
2022/07/20 02:58:03;;;;;;;8.35;4.43;;;;;;;21.14;65.84;101134.66;5174303;27;20046;-54
2022/07/20 03:00:32;;;;;;;10.13;4.63;;;;;;;21.18;66.97;101133.34;5154097;27;20070;-51
2022/07/20 03:03:02;;;;;;;8.82;4.20;;;;;;;21.14;67.77;101131.16;5171781;27;20054;-53
2022/07/20 03:05:30;;;;;;;9.50;4.60;;;;;;;21.10;66.32;101120.81;5174593;27;20046;-57
2022/07/20 03:07:58;;;;;;;8.43;4.30;;;;;;;21.10;68.42;101123.47;5174572;27;20484;-53
2022/07/20 03:10:26;;;;;;;10.93;4.30;;;;;;;21.05;68.71;101117.78;5174025;27;20413;-51
2022/07/20 03:12:54;;;;;;;9.82;4.78;;;;;;;21.08;68.39;101109.41;5172579;27;20038;-55
2022/07/20 03:15:22;;;;;;;10.75;4.70;;;;;;;21.04;68.60;101107.25;5174215;27;20034;-54
2022/07/20 03:17:52;;;;;;;11.15;4.97;;;;;;;21.00;67.78;101112.06;5174624;27;20033;-53
2022/07/20 03:20:24;;;;;;;9.60;4.65;;;;;;;20.89;69.95;101110.53;5166557;27;20172;-54
2022/07/20 03:22:53;;;;;;;7.85;4.13;;;;;;;20.91;68.59;101108.53;5174387;27;20353;-56
2022/07/20 03:25:21;;;;;;;7.13;3.70;;;;;;;20.91;68.71;101110.34;5174169;27;20418;-52
2022/07/20 03:27:52;;;;;;;10.80;4.72;;;;;;;20.86;69.21;101118.88;5175331;27;20456;-53
2022/07/20 03:30:20;;;;;;;9.25;4.43;;;;;;;20.90;70.75;101117.56;5174336;27;20527;-55
2022/07/20 03:32:48;;;;;;;9.13;4.78;;;;;;;20.88;70.20;101126.72;5174451;27;20465;-54
2022/07/20 03:35:17;;;;;;;9.02;4.40;;;;;;;20.83;69.08;101131.72;5174547;27;20537;-56
2022/07/20 03:37:46;;;;;;;10.20;4.40;;;;;;;20.85;68.77;101141.25;5173076;27;20443;-55
2022/07/20 03:40:14;;;;;;;7.55;4.30;;;;;;;20.80;67.05;101140.06;5171715;27;20209;-54
2022/07/20 03:42:42;;;;;;;9.68;4.60;;;;;;;20.79;68.51;101141.03;5174312;27;20073;-53
2022/07/20 03:45:11;;;;;;;7.93;4.60;;;;;;;20.76;68.12;101148.41;5174320;27;20050;-56
2022/07/20 03:47:39;;;;;;;7.90;4.70;;;;;;;20.72;68.04;101152.38;5173857;27;20404;-55
2022/07/20 03:50:08;;;;;;;8.32;4.70;;;;;;;20.68;68.96;101153.69;5170323;27;20088;-53
2022/07/20 03:52:36;;;;;;;8.85;4.78;;;;;;;20.77;68.60;101151.91;5173488;27;20520;-54
2022/07/20 03:55:06;;;;;;;10.57;4.45;;;;;;;20.69;68.00;101159.88;5172037;27;20125;-53
2022/07/20 03:57:34;;;;;;;9.77;4.55;;;;;;;20.62;68.50;101162.31;5171827;27;20149;-53
2022/07/20 04:00:03;;;;;;;9.13;4.88;;;;;;;20.63;69.21;101164.00;5173738;27;20072;-54
2022/07/20 04:02:31;;;;;;;9.90;4.68;;;;;;;20.61;68.69;101160.63;5172759;27;20091;-54
2022/07/20 04:04:59;;;;;;;11.65;5.00;;;;;;;20.58;69.13;101168.97;5173194;27;20127;-55
2022/07/20 04:07:27;;;;;;;8.82;4.28;;;;;;;20.63;69.03;101169.34;5174278;27;20033;-54
2022/07/20 04:09:55;;;;;;;8.75;4.45;;;;;;;20.62;69.34;101173.00;5174440;27;20039;-54
2022/07/20 04:12:26;;;;;;;9.43;4.45;;;;;;;20.64;69.34;101173.66;5164049;27;20047;-53
2022/07/20 04:14:54;;;;;;;8.77;4.60;;;;;;;20.62;69.78;101177.50;5166979;27;20079;-54
2022/07/20 04:17:23;;;;;;;8.05;4.55;;;;;;;20.56;69.46;101181.63;5174081;27;20534;-55
2022/07/20 04:19:51;;;;;;;8.30;4.15;;;;;;;20.56;67.76;101189.63;5174394;27;20054;-54
2022/07/20 04:22:19;;;;;;;10.20;4.80;;;;;;;20.54;68.08;101191.66;5173755;27;20379;-54
2022/07/20 04:24:47;;;;;;;9.30;4.50;;;;;;;20.57;66.45;101188.66;5174563;27;20062;-54
2022/07/20 04:27:15;;;;;;;8.95;4.78;;;;;;;20.58;66.25;101198.34;5173642;27;20046;-53
2022/07/20 04:29:45;;;;;;;9.88;5.68;;;;;;;20.58;67.12;101215.19;5174230;27;20074;-54
2022/07/20 04:32:13;;;;;;;9.40;4.65;;;;;;;20.62;67.93;101215.75;5173416;27;20129;-55
2022/07/20 04:34:41;;;;;;;8.55;5.18;;;;;;;20.64;67.50;101219.06;5168714;27;20485;-55
2022/07/20 04:37:11;;;;;;;10.02;5.78;;;;;;;20.68;68.23;101215.16;5177342;27;20558;-55
2022/07/20 04:39:40;;;;;;;11.15;6.50;;;;;;;20.70;68.92;101221.16;5177744;27;20076;-54
2022/07/20 04:42:09;;;;;;;12.18;6.25;;;;;;;20.75;69.52;101220.69;5174821;27;20038;-55
2022/07/20 04:44:37;;;;;;;14.20;7.10;;;;;;;20.74;70.04;101235.88;5177082;27;20081;-57
2022/07/20 04:47:06;;;;;;;14.10;7.72;;;;;;;20.75;71.71;101250.94;5177491;27;20042;-53
2022/07/20 04:49:35;;;;;;;14.52;8.40;;;;;;;20.81;72.80;101256.66;5177610;27;20069;-53
2022/07/20 04:52:03;;;;;;;15.85;10.55;;;;;;;20.85;73.57;101256.16;5177735;27;20492;-53
2022/07/20 04:54:39;;;;;;;19.75;12.13;;;;;;;20.90;75.93;101259.22;5174005;27;20090;-55
2022/07/20 04:57:08;;;;;;;22.67;11.52;;;;;;;20.92;77.11;101257.22;5158616;27;20049;-53
2022/07/20 04:59:37;;;;;;;19.33;13.50;;;;;;;20.97;80.37;101254.09;5176526;27;20077;-53
2022/07/20 05:02:07;;;;;;;23.70;14.45;;;;;;;21.02;81.00;101262.44;5176258;27;20519;-53
2022/07/20 05:04:35;;;;;;;23.85;15.80;;;;;;;21.06;83.21;101271.00;5176582;27;20519;-54
2022/07/20 05:07:03;;;;;;;23.17;16.25;;;;;;;21.14;84.14;101267.53;5157348;27;20492;-55
2022/07/20 05:09:31;;;;;;;23.27;16.08;;;;;;;21.21;84.66;101273.91;5176417;27;20047;-54
2022/07/20 05:11:59;;;;;;;26.15;16.48;;;;;;;21.25;85.20;101270.75;5176205;27;20401;-52
2022/07/20 05:14:28;;;;;;;26.92;17.67;;;;;;;21.34;85.04;101268.13;5173720;27;20034;-52
2022/07/20 05:16:56;;;;;;;26.05;17.45;;;;;;;21.40;84.94;101267.47;5173481;27;20049;-51
2022/07/20 05:19:25;;;;;;;23.63;17.92;;;;;;;21.47;85.04;101268.50;5175772;27;20038;-52
2022/07/20 05:21:53;;;;;;;27.95;19.20;;;;;;;21.57;85.83;101279.13;5175935;27;20042;-55
2022/07/20 05:24:21;;;;;;;33.13;20.63;;;;;;;21.65;87.01;101278.28;5176494;27;20046;-54
2022/07/20 05:26:49;;;;;;;24.75;20.98;;;;;;;21.72;86.73;101276.63;5176098;27;20046;-56
2022/07/20 05:29:17;;;;;;;28.70;21.77;;;;;;;21.83;87.14;101292.41;5173172;27;20030;-55
2022/07/20 05:31:45;;;;;;;31.27;22.88;;;;;;;21.94;87.16;101285.91;5175932;27;20115;-59
2022/07/20 05:34:13;;;;;;;36.15;23.02;;;;;;;22.03;87.82;101292.97;5176287;27;20038;-57
2022/07/20 05:36:43;;;;;;;35.55;24.42;;;;;;;22.09;87.49;101294.16;5154194;27;20563;-52
2022/07/20 05:39:11;;;;;;;34.20;23.52;;;;;;;22.19;87.69;101300.16;5175593;27;20042;-50
2022/07/20 05:41:40;;;;;;;34.22;26.83;;;;;;;22.27;88.57;101302.03;5172292;27;20054;-57
2022/07/20 05:44:09;;;;;;;34.33;24.85;;;;;;;22.37;88.64;101299.22;5172753;27;20054;-54
2022/07/20 05:46:37;;;;;;;36.63;26.15;;;;;;;22.50;89.11;101302.25;5174746;27;20042;-50
2022/07/20 05:49:06;;;;;;;33.45;25.90;;;;;;;22.58;88.71;101288.00;5174622;27;20549;-54
2022/07/20 05:51:35;;;;;;;37.78;27.52;;;;;;;22.69;89.05;101292.19;5174926;27;20074;-53
2022/07/20 05:54:05;;;;;;;38.97;27.60;;;;;;;22.79;88.77;101290.97;5175131;27;20090;-54
2022/07/20 05:56:33;;;;;;;34.97;26.70;;;;;;;22.87;88.43;101295.50;5172735;27;20046;-56
2022/07/20 05:59:01;;;;;;;38.92;27.42;;;;;;;22.97;88.62;101292.63;5174730;27;20058;-57
2022/07/20 06:01:29;;;;;;;37.45;26.95;;;;;;;23.09;89.09;101291.25;5174941;27;20051;-58
2022/07/20 06:03:57;;;;;;;38.55;27.80;;;;;;;23.21;88.38;101293.63;5172329;27;20064;-56
2022/07/20 06:06:26;;;;;;;37.72;28.55;;;;;;;23.29;88.14;101296.28;5175152;27;20034;-56
2022/07/20 06:08:54;;;;;;;37.53;28.92;;;;;;;23.38;87.26;101297.06;5156236;27;20129;-53
2022/07/20 06:11:43;;;;;;;36.83;27.83;;;;;;;23.54;86.44;101302.38;5172843;27;20103;-56
2022/07/20 06:14:11;;;;;;;39.60;28.83;;;;;;;23.65;86.59;101311.88;5173027;27;20042;-54
2022/07/20 06:16:39;;;;;;;34.92;27.73;;;;;;;23.77;85.54;101312.34;5174550;27;20062;-53
2022/07/20 06:19:07;;;;;;;36.67;28.67;;;;;;;23.89;84.23;101320.88;5174441;27;20456;-55
2022/07/20 06:21:36;;;;;;;36.40;28.17;;;;;;;24.03;85.87;101327.34;5156054;27;20512;-54
2022/07/20 06:24:04;;;;;;;40.17;27.90;;;;;;;24.12;84.64;101356.66;5175352;27;20045;-53
2022/07/20 06:26:32;;;;;;;39.10;28.17;;;;;;;24.23;83.55;101350.03;5174480;27;20409;-52
2022/07/20 06:29:02;;;;;;;39.22;29.70;;;;;;;24.35;82.96;101360.38;5173143;27;20508;-54
2022/07/20 06:31:30;;;;;;;34.97;28.35;;;;;;;24.45;83.10;101371.72;5174921;27;20058;-53
2022/07/20 06:34:18;;;;;;;37.33;29.42;;;;;;;24.54;81.16;101380.56;5175715;27;20042;-52
2022/07/20 06:36:46;;;;;;;37.30;28.55;;;;;;;24.59;81.48;101379.00;5175728;27;20095;-55
2022/07/20 06:39:14;;;;;;;39.38;27.65;;;;;;;24.75;80.67;101388.84;5156624;27;20061;-57
2022/07/20 06:41:42;;;;;;;38.10;27.70;;;;;;;24.86;79.88;101395.63;5175660;27;20075;-57
2022/07/20 06:44:12;;;;;;;34.50;26.55;;;;;;;25.01;79.23;101408.31;5175740;27;20125;-54
2022/07/20 06:46:40;;;;;;;33.42;27.92;;;;;;;25.11;78.76;101409.72;5173263;27;20445;-57
2022/07/20 06:49:09;;;;;;;37.22;27.15;;;;;;;25.24;77.27;101416.31;5173373;27;20102;-53
2022/07/20 06:51:37;;;;;;;39.97;26.90;;;;;;;25.39;76.18;101411.81;5175437;27;20489;-56
2022/07/20 06:54:05;;;;;;;36.53;25.20;;;;;;;25.59;75.48;101419.34;5173074;27;20050;-56
2022/07/20 06:56:41;;;;;;;34.20;26.10;;;;;;;25.63;74.40;101426.03;5172638;27;20456;-53
2022/07/20 06:59:09;;;;;;;30.92;24.85;;;;;;;25.67;73.69;101431.88;5174027;27;20046;-57
2022/07/20 07:01:39;;;;;;;31.30;25.33;;;;;;;25.68;72.29;101438.94;5175494;27;20119;-53
2022/07/20 07:04:07;;;;;;;28.73;23.80;;;;;;;25.74;72.18;101435.50;5156782;27;20068;-56
2022/07/20 07:06:35;;;;;;;26.45;22.38;;;;;;;25.92;70.42;101452.13;5175297;27;20046;-54
2022/07/20 07:09:04;;;;;;;28.83;23.05;;;;;;;25.91;67.91;101444.22;5174976;27;20389;-54
2022/07/20 07:11:33;;;;;;;30.20;22.50;;;;;;;26.03;69.44;101450.00;5175039;27;20095;-53
2022/07/20 07:14:01;;;;;;;29.65;22.45;;;;;;;26.15;67.60;101456.56;5156436;27;20046;-53
2022/07/20 07:16:29;;;;;;;26.10;19.80;;;;;;;26.15;66.67;101461.97;5173945;27;20509;-55
2022/07/20 07:18:59;;;;;;;25.60;20.08;;;;;;;26.27;66.07;101468.56;5172305;27;20042;-50
2022/07/20 07:21:27;;;;;;;23.95;19.67;;;;;;;26.30;64.65;101470.88;5174631;27;20121;-53
2022/07/20 07:23:55;;;;;;;28.90;19.45;;;;;;;26.38;64.25;101491.50;5174907;27;20046;-54
2022/07/20 07:26:23;;;;;;;23.85;18.83;;;;;;;26.32;63.27;101493.06;5174839;27;20046;-55
2022/07/20 07:28:51;;;;;;;26.70;19.13;;;;;;;26.33;63.98;101499.31;5174930;27;20117;-55
2022/07/20 07:31:21;;;;;;;24.10;17.58;;;;;;;26.40;63.93;101500.22;5174933;27;20816;-54
2022/07/20 07:33:49;;;;;;;24.02;17.45;;;;;;;26.41;64.20;101498.34;5174783;27;20054;-56
2022/07/20 07:36:19;;;;;;;23.80;17.77;;;;;;;26.54;62.40;101497.69;5170294;27;20058;-53
2022/07/20 07:38:47;;;;;;;22.50;17.17;;;;;;;26.54;62.59;101500.38;5172875;27;20525;-53
2022/07/20 07:41:16;;;;;;;21.52;17.00;;;;;;;26.79;62.56;101507.13;5174608;27;20496;-51
2022/07/20 07:43:44;;;;;;;22.15;15.65;;;;;;;26.96;61.94;101514.97;5156496;27;20046;-57
2022/07/20 07:46:12;;;;;;;21.33;16.52;;;;;;;27.07;60.67;101527.13;5155881;27;20070;-57
2022/07/20 07:48:41;;;;;;;22.75;15.15;;;;;;;27.12;59.55;101525.50;5174497;27;20054;-53
2022/07/20 07:51:09;;;;;;;25.60;15.73;;;;;;;27.09;59.34;101536.69;5169963;27;20318;-56
2022/07/20 07:53:38;;;;;;;25.55;15.82;;;;;;;27.11;59.32;101537.31;5172620;27;20038;-56
2022/07/20 07:56:06;;;;;;;25.95;15.70;;;;;;;27.13;58.83;101543.38;5174730;27;20050;-56
2022/07/20 07:58:34;;;;;;;20.85;15.00;;;;;;;27.18;59.43;101528.47;5174422;27;20038;-55
2022/07/20 08:01:02;;;;;;;25.75;14.40;;;;;;;27.13;60.14;101537.13;5174212;27;20034;-53
2022/07/20 08:03:31;;;;;;;20.67;13.68;;;;;;;27.24;60.45;101544.72;5174446;27;20046;-55
2022/07/20 08:06:00;;;;;;;25.40;15.40;;;;;;;27.37;59.13;101548.59;5174528;27;20492;-56
2022/07/20 08:08:29;;;;;;;23.13;14.07;;;;;;;27.62;59.04;101547.16;5174276;27;20121;-54
2022/07/20 08:10:59;;;;;;;20.48;13.30;;;;;;;27.80;57.70;101546.63;5175592;27;20042;-51
2022/07/20 08:13:27;;;;;;;22.25;14.02;;;;;;;27.87;56.57;101546.69;5175687;27;20038;-52
2022/07/20 08:15:55;;;;;;;20.00;13.20;;;;;;;28.08;55.73;101556.59;5178157;27;20070;-55
2022/07/20 08:18:24;;;;;;;23.02;13.52;;;;;;;28.06;54.71;101563.22;5178358;27;20089;-56
2022/07/20 08:20:52;;;;;;;19.25;12.57;;;;;;;28.04;55.07;101576.94;5157985;27;20045;-55
2022/07/20 08:23:20;;;;;;;22.13;13.30;;;;;;;27.98;52.86;101583.13;5175862;27;20065;-57
2022/07/20 08:25:48;;;;;;;20.33;12.65;;;;;;;28.07;53.78;101573.84;5177883;27;20045;-55
2022/07/20 08:28:20;;;;;;;19.58;12.35;;;;;;;28.14;53.14;101572.03;5178590;27;20090;-53
2022/07/20 08:30:51;;;;;;;18.10;12.02;;;;;;;28.21;52.02;101579.34;5178106;27;20042;-54
2022/07/20 08:33:22;;;;;;;18.80;11.63;;;;;;;28.31;52.39;101569.00;5176446;27;20042;-56
2022/07/20 08:35:50;;;;;;;17.23;12.07;;;;;;;28.54;52.60;101559.72;5177286;27;20106;-56
2022/07/20 08:38:18;;;;;;;17.55;11.70;;;;;;;28.89;53.33;101555.09;5178208;27;20531;-54
2022/07/20 08:40:46;;;;;;;20.13;11.00;;;;;;;29.20;51.81;101552.84;5177999;27;20142;-53
2022/07/20 08:43:16;;;;;;;20.63;11.43;;;;;;;29.47;51.04;101546.41;5175906;27;20052;-54
2022/07/20 08:45:46;;;;;;;17.33;11.43;;;;;;;29.58;51.10;101546.81;5176319;27;20054;-53
2022/07/20 08:48:18;;;;;;;18.25;11.82;;;;;;;29.15;50.37;101543.47;5177852;27;20056;-54
2022/07/20 08:50:48;;;;;;;20.60;11.90;;;;;;;29.33;49.78;101551.00;5159244;27;20046;-50
2022/07/20 08:53:19;;;;;;;18.92;11.50;;;;;;;29.20;50.20;101563.66;5177996;27;20054;-53
2022/07/20 08:55:48;;;;;;;24.58;11.95;;;;;;;29.50;51.09;101567.69;5178131;27;20512;-56
2022/07/20 08:58:16;;;;;;;19.95;11.48;;;;;;;29.56;48.35;101567.88;5178265;27;20042;-56
2022/07/20 09:00:46;;;;;;;17.13;11.77;;;;;;;29.82;48.28;101565.13;5176319;27;20507;-55
2022/07/20 09:03:14;;;;;;;20.13;11.52;;;;;;;30.06;47.33;101564.69;5174928;27;20054;-55
2022/07/20 09:05:43;;;;;;;18.45;11.40;;;;;;;30.07;46.63;101553.63;5177350;27;20508;-57
2022/07/20 09:08:13;;;;;;;17.05;10.13;;;;;;;30.37;46.64;101558.53;5174809;27;20049;-55
2022/07/20 09:10:46;;;;;;;16.75;10.63;;;;;;;30.44;46.51;101551.22;5175894;27;20496;-56
2022/07/20 09:13:19;;;;;;;18.00;10.13;;;;;;;30.51;46.37;101541.19;5177787;27;20043;-56
2022/07/20 09:15:52;;;;;;;15.93;9.70;;;;;;;30.67;46.28;101561.56;5177764;27;20477;-53
2022/07/20 09:18:22;;;;;;;14.20;9.05;;;;;;;30.83;45.67;101573.78;5177378;27;20090;-54
2022/07/20 09:20:53;;;;;;;12.90;8.25;;;;;;;31.16;44.09;101564.63;5176301;27;20038;-54
2022/07/20 09:23:23;;;;;;;13.95;8.57;;;;;;;31.43;43.43;101558.13;5175039;27;20046;-56
2022/07/20 09:25:59;;;;;;;19.13;9.35;;;;;;;31.16;42.30;101561.09;5176194;27;20058;-56
2022/07/20 09:28:39;;;;;;;12.55;7.97;;;;;;;31.18;42.65;101559.81;5177156;27;20046;-56
2022/07/20 09:31:13;;;;;;;12.73;8.52;;;;;;;31.49;43.22;101554.53;5177024;27;20042;-57
2022/07/20 09:33:49;;;;;;;12.93;8.43;;;;;;;31.52;42.00;101554.09;5177664;27;20053;-56
2022/07/20 09:36:19;;;;;;;13.82;8.18;;;;;;;31.49;41.64;101543.66;5177120;27;20062;-56
2022/07/20 09:38:47;;;;;;;12.20;8.02;;;;;;;31.74;41.48;101540.97;5158375;27;20042;-54
2022/07/20 09:41:26;;;;;;;13.63;7.97;;;;;;;31.74;41.35;101540.97;5176739;27;20554;-53
2022/07/20 09:43:56;;;;;;;11.88;8.45;;;;;;;31.88;41.18;101557.97;5177139;27;20492;-56
2022/07/20 09:46:27;;;;;;;12.50;7.88;;;;;;;32.05;40.73;101569.06;5177088;27;20389;-56
2022/07/20 09:48:57;;;;;;;11.35;8.02;;;;;;;32.25;39.37;101568.06;5175570;27;20094;-53
2022/07/20 09:51:27;;;;;;;14.73;8.60;;;;;;;32.26;39.00;101575.97;5172454;27;20050;-56
2022/07/20 09:54:02;;;;;;;11.23;7.47;;;;;;;32.55;39.56;101605.38;5176051;27;20058;-56
2022/07/20 09:56:31;;;;;;;11.95;7.47;;;;;;;32.60;37.32;101608.22;5174411;27;20049;-54
2022/07/20 09:59:02;;;;;;;15.10;7.53;;;;;;;32.84;38.14;101609.19;5174806;27;20519;-52
2022/07/20 10:01:33;;;;;;;10.10;7.40;;;;;;;32.94;38.21;101608.63;5176516;27;20048;-52
2022/07/20 10:04:03;;;;;;;13.80;7.43;;;;;;;33.09;37.38;101600.88;5174401;27;20042;-54
2022/07/20 10:06:32;;;;;;;10.10;7.80;;;;;;;32.98;37.67;101609.81;5172712;27;20046;-53
2022/07/20 10:09:01;;;;;;;12.05;7.43;;;;;;;33.11;38.13;101615.06;5176179;27;20042;-53
2022/07/20 10:11:30;;;;;;;13.07;7.47;;;;;;;33.07;38.44;101608.44;5176655;27;20050;-56
2022/07/20 10:14:01;;;;;;;13.98;7.85;;;;;;;33.21;38.26;101598.16;5176546;27;20094;-51
2022/07/20 10:16:34;;;;;;;10.77;7.63;;;;;;;33.42;37.55;101593.25;5176630;27;20046;-54
2022/07/20 10:19:04;;;;;;;13.35;7.47;;;;;;;33.55;37.80;101581.28;5157166;27;20046;-54
2022/07/20 10:21:40;;;;;;;10.52;7.97;;;;;;;33.27;37.45;101577.34;5171694;27;20041;-54
2022/07/20 10:24:25;;;;;;;13.40;7.57;;;;;;;32.80;37.22;101567.13;5155806;27;20414;-56
2022/07/20 10:26:56;;;;;;;11.73;7.18;;;;;;;32.75;37.77;101572.44;5176524;27;20066;-57
2022/07/20 10:29:32;;;;;;;13.05;7.40;;;;;;;32.70;37.80;101589.47;5176008;27;20065;-54
2022/07/20 10:32:14;;;;;;;12.48;7.80;;;;;;;33.05;37.97;101588.78;5173370;27;20057;-53
2022/07/20 10:34:43;;;;;;;14.55;7.72;;;;;;;32.74;37.85;101601.56;5174655;27;20050;-54
2022/07/20 10:37:29;;;;;;;14.55;7.65;;;;;;;32.93;37.56;101639.63;5175872;27;20042;-53
2022/07/20 10:40:10;;;;;;;11.65;7.35;;;;;;;33.12;38.00;101652.16;5175832;27;20050;-55
2022/07/20 10:42:40;;;;;;;12.60;8.10;;;;;;;33.63;37.97;101666.28;5175772;27;20054;-56
2022/07/20 10:45:31;;;;;;;13.73;8.05;;;;;;;34.02;37.42;101663.16;5175660;27;20053;-56
2022/07/20 10:48:20;;;;;;;13.80;7.72;;;;;;;34.52;35.85;101656.31;5173510;27;20133;-56
2022/07/20 10:50:50;;;;;;;12.35;7.57;;;;;;;34.60;36.20;101646.94;5172323;27;20144;-57
2022/07/20 10:53:37;;;;;;;11.48;8.13;;;;;;;34.06;36.45;101633.47;5175382;27;20137;-53
2022/07/20 10:56:10;;;;;;;10.48;7.45;;;;;;;33.88;36.50;101635.25;5173337;27;20038;-50
2022/07/20 10:58:43;;;;;;;12.23;7.90;;;;;;;33.85;35.76;101636.56;5173190;27;20049;-53
2022/07/20 11:01:12;;;;;;;11.80;7.65;;;;;;;33.97;36.81;101650.19;5174521;27;20048;-57
2022/07/20 11:03:44;;;;;;;11.93;7.57;;;;;;;34.35;36.12;101634.41;5173044;27;20417;-57
2022/07/20 11:06:15;;;;;;;13.15;7.60;;;;;;;34.72;35.53;101631.34;5174322;27;20117;-54
2022/07/20 11:08:45;;;;;;;10.55;7.30;;;;;;;34.60;35.59;101620.44;5175030;27;20134;-53
2022/07/20 11:11:17;;;;;;;13.68;7.10;;;;;;;34.64;35.83;101618.06;5175456;27;20445;-57
2022/07/20 11:13:47;;;;;;;12.25;6.70;;;;;;;34.83;34.82;101619.56;5175395;27;20129;-56
2022/07/20 11:16:19;;;;;;;10.07;6.80;;;;;;;34.85;34.19;101613.84;5175263;27;20047;-50
2022/07/20 11:18:51;;;;;;;8.88;6.00;;;;;;;34.35;33.42;101627.06;5173564;27;20495;-50
2022/07/20 11:21:29;;;;;;;9.38;5.47;;;;;;;34.61;33.52;101607.66;5170905;27;20038;-57
2022/07/20 11:24:05;;;;;;;10.52;5.10;;;;;;;34.97;32.62;101600.13;5175161;27;20405;-57
2022/07/20 11:26:33;;;;;;;9.27;5.60;;;;;;;34.87;31.87;101593.41;5175198;27;20496;-55
2022/07/20 11:29:01;;;;;;;9.63;5.00;;;;;;;35.41;32.74;101602.25;5173361;27;20052;-53
2022/07/20 11:31:31;;;;;;;8.90;5.70;;;;;;;35.69;31.50;101593.94;5172411;27;20083;-54
2022/07/20 11:34:01;;;;;;;9.77;5.32;;;;;;;35.10;31.47;101594.34;5174585;27;20049;-52